createdAt,value
2022-11-23T00:01:38.278Z,98199.06
2022-11-23T00:04:12.068Z,98196.69
2022-11-23T00:06:41.375Z,98191.94
2022-11-23T00:09:12.611Z,98197.25
2022-11-23T00:11:40.357Z,98180.16
2022-11-23T00:14:08.892Z,98177.03
2022-11-23T00:16:37.460Z,98182.63
2022-11-23T00:19:05.232Z,98188.13
2022-11-23T00:21:33.891Z,98193.81
2022-11-23T00:24:02.623Z,98181.47
2022-11-23T00:26:30.667Z,98183.38
2022-11-23T00:28:59.303Z,98183.09
2022-11-23T00:31:28.014Z,98180.16
2022-11-23T00:33:57.777Z,98171.31
2022-11-23T00:36:28.287Z,98167.34
2022-11-23T00:38:57.771Z,98164.41
2022-11-23T00:41:28.864Z,98166.47
2022-11-23T00:43:56.585Z,98165.72
2022-11-23T00:46:28.167Z,98170.09
2022-11-23T00:48:58.185Z,98168.97
2022-11-23T00:51:33.083Z,98164.22
2022-11-23T00:54:03.941Z,98165.00
2022-11-23T00:56:34.663Z,98153.03
2022-11-23T00:59:03.757Z,98159.66
2022-11-23T01:01:37.180Z,98159.09
2022-11-23T01:04:08.465Z,98156.81
2022-11-23T01:06:40.104Z,98163.50
2022-11-23T01:09:17.925Z,98153.78
2022-11-23T01:11:46.347Z,98153.94
2022-11-23T01:14:14.275Z,98153.00
2022-11-23T01:16:43.320Z,98153.59
2022-11-23T01:19:20.904Z,98155.59
2022-11-23T01:21:51.416Z,98153.41
2022-11-23T01:24:22.619Z,98143.44
2022-11-23T01:26:55.937Z,98146.59
2022-11-23T01:29:25.786Z,98144.41
2022-11-23T01:31:53.493Z,98141.38
2022-11-23T01:34:22.052Z,98151.00
2022-11-23T01:36:49.781Z,98144.84
2022-11-23T01:39:18.331Z,98144.00
2022-11-23T01:41:47.271Z,98145.81
2022-11-23T01:44:44.267Z,98148.28
2022-11-23T01:47:12.909Z,98144.78
2022-11-23T01:49:51.845Z,98155.56
2022-11-23T01:52:27.357Z,98145.03
2022-11-23T01:54:59.220Z,98141.25
2022-11-23T01:57:38.229Z,98144.47
2022-11-23T02:00:06.995Z,98140.56
2022-11-23T02:02:37.194Z,98126.53
2022-11-23T02:05:06.500Z,98131.31
2022-11-23T02:07:35.506Z,98135.59
2022-11-23T02:10:04.891Z,98137.78
2022-11-23T02:12:32.550Z,98128.72
2022-11-23T02:15:01.029Z,98143.94
2022-11-23T02:17:28.719Z,98139.34
2022-11-23T02:20:11.476Z,98153.97
2022-11-23T02:22:50.811Z,98138.88
2022-11-23T02:26:04.623Z,98154.88
2022-11-23T02:28:55.105Z,98136.13
2022-11-23T02:31:22.808Z,98126.84
2022-11-23T02:33:51.283Z,98130.22
2022-11-23T02:36:45.228Z,98133.91
2022-11-23T02:39:38.098Z,98129.63
2022-11-23T02:42:07.456Z,98125.75
2022-11-23T02:45:09.182Z,98136.53
2022-11-23T02:47:37.776Z,98130.09
2022-11-23T02:50:06.060Z,98143.91
2022-11-23T02:52:33.743Z,98139.63
2022-11-23T02:55:02.237Z,98133.28
2022-11-23T02:57:29.896Z,98126.44
2022-11-23T02:59:58.353Z,98119.50
2022-11-23T03:02:26.029Z,98118.59
2022-11-23T03:04:53.668Z,98111.41
2022-11-23T03:07:21.352Z,98117.16
2022-11-23T03:09:51.784Z,98116.19
2022-11-23T03:12:19.477Z,98097.88
2022-11-23T03:14:50.691Z,98113.88
2022-11-23T03:17:19.325Z,98104.38
2022-11-23T03:19:47.044Z,98098.22
2022-11-23T03:22:15.666Z,98097.94
2022-11-23T03:24:43.420Z,98106.25
2022-11-23T03:27:14.636Z,98103.59
2022-11-23T03:29:42.318Z,98113.47
2022-11-23T03:32:09.926Z,98080.66
2022-11-23T03:34:37.720Z,98092.25
2022-11-23T03:37:06.191Z,98093.16
2022-11-23T03:39:34.460Z,98102.16
2022-11-23T03:42:04.550Z,98098.06
2022-11-23T03:44:34.036Z,98103.44
2022-11-23T03:47:02.569Z,98094.34
2022-11-23T03:49:30.554Z,98099.75
2022-11-23T03:51:59.444Z,98093.94
2022-11-23T03:54:27.912Z,98091.53
2022-11-23T03:56:56.472Z,98103.19
2022-11-23T03:59:26.000Z,98103.38
2022-11-23T04:01:54.477Z,98099.06
2022-11-23T04:04:22.229Z,98095.63
2022-11-23T04:06:50.824Z,98109.84
2022-11-23T04:09:18.546Z,98098.28
2022-11-23T04:11:46.209Z,98103.00
2022-11-23T04:14:13.880Z,98095.81
2022-11-23T04:16:41.593Z,98097.94
2022-11-23T04:19:10.395Z,98115.56
2022-11-23T04:21:38.078Z,98122.88
2022-11-23T04:24:07.197Z,98127.22
2022-11-23T04:26:35.706Z,98138.59
2022-11-23T04:29:05.276Z,98134.50
2022-11-23T04:31:33.863Z,98132.03
2022-11-23T04:34:02.561Z,98128.84
2022-11-23T04:36:30.448Z,98141.16
2022-11-23T04:38:58.936Z,98148.38
2022-11-23T04:41:27.643Z,98150.84
2022-11-23T04:43:56.720Z,98153.09
2022-11-23T04:46:25.585Z,98144.97
2022-11-23T04:48:53.305Z,98143.81
2022-11-23T04:51:21.960Z,98139.78
2022-11-23T04:53:50.412Z,98130.50
2022-11-23T04:56:18.108Z,98136.56
2022-11-23T04:58:45.771Z,98123.31
2022-11-23T05:01:13.527Z,98119.81
2022-11-23T05:03:41.244Z,98117.56
2022-11-23T05:06:10.396Z,98115.84
2022-11-23T05:08:39.157Z,98118.59
2022-11-23T05:11:07.166Z,98118.09
2022-11-23T05:13:34.890Z,98118.25
2022-11-23T05:16:02.673Z,98115.69
2022-11-23T05:18:30.407Z,98123.94
2022-11-23T05:20:58.050Z,98117.94
2022-11-23T05:23:25.804Z,98106.28
2022-11-23T05:25:53.684Z,98102.72
2022-11-23T05:28:39.568Z,98110.75
2022-11-23T05:31:10.163Z,98109.03
2022-11-23T05:33:39.827Z,98122.38
2022-11-23T05:36:13.985Z,98126.84
2022-11-23T05:38:45.295Z,98121.53
2022-11-23T05:41:13.018Z,98120.50
2022-11-23T05:43:40.725Z,98119.66
2022-11-23T05:46:09.287Z,98114.69
2022-11-23T05:48:37.982Z,98123.94
2022-11-23T05:51:05.795Z,98119.28
2022-11-23T05:53:34.803Z,98126.44
2022-11-23T05:56:04.733Z,98135.63
2022-11-23T05:58:33.161Z,98136.84
2022-11-23T06:01:02.587Z,98150.09
2022-11-23T06:03:31.128Z,98129.69
2022-11-23T06:05:59.752Z,98116.00
2022-11-23T06:08:27.457Z,98121.31
2022-11-23T06:10:55.170Z,98121.50
2022-11-23T06:13:22.827Z,98131.28
2022-11-23T06:15:52.271Z,98127.66
2022-11-23T06:18:20.747Z,98126.88
2022-11-23T06:20:48.446Z,98129.72
2022-11-23T06:23:16.154Z,98135.88
2022-11-23T06:25:43.935Z,98137.44
2022-11-23T06:28:12.557Z,98135.38
2022-11-23T06:30:40.197Z,98143.34
2022-11-23T06:33:08.027Z,98148.81
2022-11-23T06:35:35.664Z,98132.78
2022-11-23T06:38:06.046Z,98138.88
2022-11-23T06:40:34.758Z,98145.59
2022-11-23T06:43:03.555Z,98140.84
2022-11-23T06:45:31.307Z,98151.09
2022-11-23T06:47:59.751Z,98155.78
2022-11-23T06:50:28.360Z,98154.75
2022-11-23T06:52:58.947Z,98156.03
2022-11-23T06:55:29.363Z,98155.19
2022-11-23T06:58:00.505Z,98157.25
2022-11-23T07:00:28.178Z,98165.59
2022-11-23T07:02:56.706Z,98166.22
2022-11-23T07:05:25.930Z,98158.97
2022-11-23T07:07:53.929Z,98177.97
2022-11-23T07:10:22.539Z,98175.13
2022-11-23T07:12:51.035Z,98182.84
2022-11-23T07:15:19.824Z,98191.28
2022-11-23T07:17:48.366Z,98180.00
2022-11-23T07:20:17.253Z,98182.16
2022-11-23T07:22:45.013Z,98185.53
2022-11-23T07:25:16.682Z,98184.28
2022-11-23T07:27:44.742Z,98181.47
2022-11-23T07:30:15.178Z,98186.25
2022-11-23T07:32:43.599Z,98190.38
2022-11-23T07:35:12.727Z,98188.31
2022-11-23T07:37:40.432Z,98180.53
2022-11-23T07:40:09.404Z,98175.63
2022-11-23T07:42:43.160Z,98174.84
2022-11-23T07:45:14.534Z,98171.66
2022-11-23T07:47:43.039Z,98182.00
2022-11-23T07:50:13.890Z,98191.56
2022-11-23T07:52:45.113Z,98194.34
2022-11-23T07:55:13.603Z,98189.69
2022-11-23T07:57:42.061Z,98176.59
2022-11-23T08:00:12.688Z,98179.34
2022-11-23T08:02:57.738Z,98178.91
2022-11-23T08:05:32.254Z,98173.09
2022-11-23T08:08:02.424Z,98179.38
2022-11-23T08:10:33.937Z,98175.31
2022-11-23T08:13:07.157Z,98174.56
2022-11-23T08:15:36.688Z,98180.06
2022-11-23T08:18:05.883Z,98183.66
2022-11-23T08:20:34.172Z,98172.28
2022-11-23T08:23:02.730Z,98171.44
2022-11-23T08:25:31.630Z,98174.56
2022-11-23T08:28:03.511Z,98168.56
2022-11-23T08:30:35.074Z,98171.72
2022-11-23T08:33:08.546Z,98174.06
2022-11-23T08:35:40.032Z,98175.28
2022-11-23T08:38:10.937Z,98178.34
2022-11-23T08:40:39.503Z,98181.75
2022-11-23T08:43:09.100Z,98188.78
2022-11-23T08:45:36.926Z,98191.84
2022-11-23T08:48:06.269Z,98185.84
2022-11-23T08:50:35.642Z,98189.72
2022-11-23T08:53:06.830Z,98189.84
2022-11-23T08:55:35.380Z,98183.38
2022-11-23T08:58:09.036Z,98190.88
2022-11-23T09:00:40.335Z,98187.09
2022-11-23T09:03:07.977Z,98190.19
2022-11-23T09:05:39.476Z,98184.06
2022-11-23T09:08:09.217Z,98187.38
2022-11-23T09:10:38.368Z,98193.63
2022-11-23T09:13:07.204Z,98190.81
2022-11-23T09:15:36.321Z,98186.22
2022-11-23T09:18:06.759Z,98189.19
2022-11-23T09:20:36.312Z,98184.91
2022-11-23T09:23:07.970Z,98183.56
2022-11-23T09:25:41.751Z,98179.06
2022-11-23T09:28:12.697Z,98189.06
2022-11-23T09:30:41.398Z,98189.84
2022-11-23T09:33:10.991Z,98176.41
2022-11-23T09:35:43.616Z,98180.81
2022-11-23T09:38:11.995Z,98178.69
2022-11-23T09:40:41.781Z,98178.25
2022-11-23T09:43:42.541Z,98173.34
2022-11-23T09:46:58.171Z,98165.19
2022-11-23T09:50:03.347Z,98174.75
2022-11-23T09:52:32.186Z,98181.75
2022-11-23T09:55:20.176Z,98182.59
2022-11-23T09:57:49.909Z,98180.63
2022-11-23T10:00:23.435Z,98174.47
2022-11-23T10:02:51.924Z,98179.00
2022-11-23T10:05:26.742Z,98174.94
2022-11-23T10:08:30.370Z,98170.09
2022-11-23T10:11:42.443Z,98172.56
2022-11-23T10:15:05.277Z,98170.38
2022-11-23T10:18:00.729Z,98162.88
2022-11-23T10:20:47.653Z,98163.41
2022-11-23T10:23:49.602Z,98158.78
2022-11-23T10:26:22.068Z,98166.66
2022-11-23T10:28:50.573Z,98162.88
2022-11-23T10:31:26.084Z,98168.63
2022-11-23T10:34:14.367Z,98166.88
2022-11-23T10:36:42.833Z,98159.22
2022-11-23T10:39:26.858Z,98157.72
2022-11-23T10:42:12.411Z,98163.09
2022-11-23T10:44:43.218Z,98164.13
2022-11-23T10:47:11.660Z,98164.44
2022-11-23T10:49:39.336Z,98169.22
2022-11-23T10:52:31.031Z,98166.53
2022-11-23T10:55:06.245Z,98165.09
2022-11-23T10:57:43.511Z,98165.19
2022-11-23T11:00:16.438Z,98163.69
2022-11-23T11:02:55.966Z,98169.72
2022-11-23T11:09:03.018Z,98157.34
2022-11-23T11:11:37.925Z,98171.63
2022-11-23T11:14:25.836Z,98176.34
2022-11-23T11:17:00.747Z,98166.84
2022-11-23T11:19:36.102Z,98177.38
2022-11-23T11:22:37.333Z,98178.31
2022-11-23T11:25:18.727Z,98179.03
2022-11-23T11:27:53.127Z,98178.63
2022-11-23T11:30:24.957Z,98180.09
2022-11-23T11:33:24.320Z,98171.50
2022-11-23T11:35:54.421Z,98173.22
2022-11-23T11:38:34.257Z,98165.53
2022-11-23T11:41:09.937Z,98176.19
2022-11-23T11:43:50.862Z,98175.75
2022-11-23T11:46:32.169Z,98173.50
2022-11-23T11:49:13.747Z,98171.31
2022-11-23T11:52:07.319Z,98175.56
2022-11-23T11:55:00.159Z,98165.25
2022-11-23T11:57:55.457Z,98161.31
2022-11-23T12:00:24.069Z,98161.38
2022-11-23T12:03:38.816Z,98167.03
2022-11-23T12:06:43.911Z,98168.75
2022-11-23T12:09:23.442Z,98167.47
2022-11-23T12:11:51.202Z,98166.81
2022-11-23T12:14:21.679Z,98160.84
2022-11-23T12:17:36.779Z,98164.59
2022-11-23T12:21:25.235Z,98163.13
2022-11-23T12:24:54.478Z,98161.59
2022-11-23T12:27:50.457Z,98145.72
2022-11-23T12:31:09.199Z,98149.44
2022-11-23T12:34:24.849Z,98150.13
2022-11-23T12:38:09.378Z,98157.19
2022-11-23T12:41:09.738Z,98155.94
2022-11-23T12:44:14.262Z,98154.72
2022-11-23T12:47:24.292Z,98162.75
2022-11-23T12:50:24.598Z,98161.97
2022-11-23T12:53:41.190Z,98164.56
2022-11-23T12:56:20.726Z,98169.59
2022-11-23T12:58:51.531Z,98165.03
2022-11-23T13:01:35.427Z,98169.38
2022-11-23T13:04:48.641Z,98168.31
2022-11-23T13:07:49.758Z,98167.25
2022-11-23T13:10:35.335Z,98174.72
2022-11-23T13:13:49.156Z,98166.81
2022-11-23T13:16:22.379Z,98179.00
2022-11-23T13:19:21.297Z,98169.91
2022-11-23T13:21:52.600Z,98174.09
2022-11-23T13:24:38.066Z,98178.47
2022-11-23T13:27:15.509Z,98180.06
2022-11-23T13:29:51.927Z,98183.69
2022-11-23T13:32:46.116Z,98181.75
2022-11-23T13:35:19.465Z,98181.13
2022-11-23T13:38:14.760Z,98185.72
2022-11-23T13:40:46.700Z,98181.34
2022-11-23T13:43:24.187Z,98192.16
2022-11-23T13:46:29.257Z,98190.81
2022-11-23T13:49:00.012Z,98194.53
2022-11-23T13:51:34.875Z,98200.72
2022-11-23T13:54:26.641Z,98194.47
2022-11-23T13:57:02.867Z,98193.72
2022-11-23T13:59:34.968Z,98194.25
2022-11-23T14:02:09.018Z,98201.16
2022-11-23T14:04:41.625Z,98202.47
2022-11-23T14:07:26.064Z,98205.50
2022-11-23T14:10:23.108Z,98209.69
2022-11-23T14:13:15.954Z,98205.16
2022-11-23T14:15:58.795Z,98198.63
2022-11-23T14:19:27.341Z,98211.41
2022-11-23T14:22:09.769Z,98206.63
2022-11-23T14:25:09.059Z,98205.88
2022-11-23T14:28:00.393Z,98202.03
2022-11-23T14:31:08.082Z,98203.63
2022-11-23T14:34:22.942Z,98211.22
2022-11-23T14:37:38.043Z,98211.09
2022-11-23T14:42:50.949Z,98227.41
2022-11-23T14:45:23.732Z,98218.47
2022-11-23T14:47:51.673Z,98228.28
2022-11-23T14:50:29.505Z,98225.19
2022-11-23T14:53:00.871Z,98223.50
2022-11-23T14:55:31.403Z,98231.19
2022-11-23T14:58:06.191Z,98229.44
2022-11-23T15:00:43.649Z,98225.28
2022-11-23T15:03:49.215Z,98225.50
2022-11-23T15:06:16.825Z,98227.63
2022-11-23T15:09:15.719Z,98231.78
2022-11-23T15:11:43.642Z,98227.16
2022-11-23T15:14:21.707Z,98226.53
2022-11-23T15:16:49.676Z,98227.16
2022-11-23T15:19:29.939Z,98237.69
2022-11-23T15:21:58.997Z,98231.41
2022-11-23T15:24:28.354Z,98229.63
2022-11-23T15:27:12.064Z,98238.59
2022-11-23T15:29:40.266Z,98233.28
2022-11-23T15:32:34.234Z,98232.88
2022-11-23T15:35:14.349Z,98231.22
2022-11-23T15:37:47.769Z,98228.06
2022-11-23T15:40:18.987Z,98235.75
2022-11-23T15:42:51.148Z,98236.56
2022-11-23T15:45:48.874Z,98233.63
2022-11-23T15:48:27.775Z,98226.16
2022-11-23T15:51:03.973Z,98234.44
2022-11-23T15:53:51.391Z,98235.09
2022-11-23T15:56:37.990Z,98235.00
2022-11-23T15:59:47.671Z,98232.31
2022-11-23T16:02:25.201Z,98237.03
2022-11-23T16:05:19.356Z,98236.19
2022-11-23T16:08:02.534Z,98243.59
2022-11-23T16:10:35.273Z,98239.34
2022-11-23T16:13:08.905Z,98240.97
2022-11-23T16:15:42.083Z,98243.66
2022-11-23T16:18:17.163Z,98248.25
2022-11-23T16:20:55.749Z,98252.66
2022-11-23T16:23:44.547Z,98246.31
2022-11-23T16:26:15.144Z,98256.84
2022-11-23T16:28:58.805Z,98248.97
2022-11-23T16:31:41.282Z,98260.25
2022-11-23T16:34:18.963Z,98258.94
2022-11-23T16:36:48.939Z,98266.53
2022-11-23T16:39:17.560Z,98266.00
2022-11-23T16:41:47.171Z,98262.09
2022-11-23T16:44:17.176Z,98269.13
2022-11-23T16:46:48.124Z,98262.66
2022-11-23T16:49:20.999Z,98266.81
2022-11-23T16:51:57.145Z,98268.91
2022-11-23T16:54:26.178Z,98267.16
2022-11-23T16:56:54.765Z,98263.22
2022-11-23T16:59:23.904Z,98272.56
2022-11-23T17:01:56.942Z,98269.59
2022-11-23T17:04:26.335Z,98270.16
2022-11-23T17:06:54.102Z,98267.06
2022-11-23T17:09:21.749Z,98274.94
2022-11-23T17:11:52.505Z,98276.41
2022-11-23T17:14:30.140Z,98270.59
2022-11-23T17:17:02.325Z,98278.31
2022-11-23T17:19:32.627Z,98273.34
2022-11-23T17:22:02.362Z,98284.00
2022-11-23T17:24:32.315Z,98277.66
2022-11-23T17:27:01.158Z,98281.25
2022-11-23T17:29:30.971Z,98285.66
2022-11-23T17:31:58.884Z,98286.88
2022-11-23T17:34:27.396Z,98289.59
2022-11-23T17:36:56.854Z,98285.47
2022-11-23T17:39:28.498Z,98288.81
2022-11-23T17:42:04.609Z,98272.41
2022-11-23T17:44:34.584Z,98281.47
2022-11-23T17:47:05.007Z,98281.97
2022-11-23T17:49:33.925Z,98288.22
2022-11-23T17:52:03.812Z,98287.28
2022-11-23T17:54:33.503Z,98289.19
2022-11-23T17:57:03.114Z,98285.38
2022-11-23T17:59:34.401Z,98286.34
2022-11-23T18:02:04.213Z,98284.25
2022-11-23T18:04:34.900Z,98285.84
2022-11-23T18:07:05.177Z,98288.59
2022-11-23T18:09:35.263Z,98284.97
2022-11-23T18:12:04.142Z,98291.66
2022-11-23T18:14:34.461Z,98291.91
2022-11-23T18:17:04.336Z,98290.31
2022-11-23T18:19:34.144Z,98290.72
2022-11-23T18:22:03.122Z,98291.50
2022-11-23T18:24:31.732Z,98293.78
2022-11-23T18:27:00.793Z,98290.75
2022-11-23T18:29:31.259Z,98291.50
2022-11-23T18:32:00.450Z,98291.59
2022-11-23T18:34:30.012Z,98289.78
2022-11-23T18:36:59.461Z,98287.63
2022-11-23T18:39:28.932Z,98291.50
2022-11-23T18:42:04.084Z,98289.78
2022-11-23T18:44:34.532Z,98295.69
2022-11-23T18:47:04.161Z,98289.56
2022-11-23T18:49:34.256Z,98289.75
2022-11-23T18:52:03.960Z,98289.00
2022-11-23T18:54:33.402Z,98292.63
2022-11-23T18:57:02.819Z,98298.69
2022-11-23T18:59:56.922Z,98299.66
2022-11-23T19:02:21.730Z,98302.16
2022-11-23T19:04:51.377Z,98302.97
2022-11-23T19:07:25.258Z,98294.91
2022-11-23T19:09:56.302Z,98300.31
2022-11-23T19:12:25.839Z,98315.53
2022-11-23T19:14:53.583Z,98306.88
2022-11-23T19:17:23.077Z,98301.53
2022-11-23T19:19:52.567Z,98308.41
2022-11-23T19:22:23.008Z,98311.34
2022-11-23T19:24:53.511Z,98308.97
2022-11-23T19:27:22.976Z,98307.63
2022-11-23T19:29:50.712Z,98313.66
2022-11-23T19:32:20.338Z,98317.38
2022-11-23T19:34:49.802Z,98326.06
2022-11-23T19:37:18.474Z,98323.41
2022-11-23T19:39:47.970Z,98327.44
2022-11-23T19:42:17.382Z,98325.13
2022-11-23T19:44:47.122Z,98330.84
2022-11-23T19:47:22.708Z,98330.56
2022-11-23T19:49:52.570Z,98330.84
2022-11-23T19:52:22.071Z,98336.38
2022-11-23T19:54:51.507Z,98333.66
2022-11-23T19:57:21.412Z,98327.69
2022-11-23T19:59:50.993Z,98335.81
2022-11-23T20:02:26.769Z,98335.41
2022-11-23T20:04:56.236Z,98344.34
2022-11-23T20:07:25.749Z,98339.81
2022-11-23T20:09:54.503Z,98346.84
2022-11-23T20:12:23.963Z,98344.47
2022-11-23T20:14:53.415Z,98342.84
2022-11-23T20:17:22.811Z,98347.75
2022-11-23T20:19:53.322Z,98342.94
2022-11-23T20:22:22.791Z,98347.97
2022-11-23T20:24:52.394Z,98348.84
2022-11-23T20:27:22.785Z,98343.25
2022-11-23T20:29:51.411Z,98353.69
2022-11-23T20:32:20.919Z,98355.81
2022-11-23T20:34:50.379Z,98354.09
2022-11-23T20:37:19.852Z,98356.84
2022-11-23T20:39:49.446Z,98364.84
2022-11-23T20:42:20.246Z,98362.47
2022-11-23T20:44:49.803Z,98367.97
2022-11-23T20:47:20.266Z,98361.78
2022-11-23T20:49:49.997Z,98367.09
2022-11-23T20:52:19.510Z,98369.03
2022-11-23T20:54:48.336Z,98375.00
2022-11-23T20:57:17.850Z,98375.19
2022-11-23T20:59:46.509Z,98369.88
2022-11-23T21:02:15.548Z,98377.66
2022-11-23T21:04:46.633Z,98375.19
2022-11-23T21:07:16.164Z,98380.34
2022-11-23T21:09:45.687Z,98382.97
2022-11-23T21:12:33.576Z,98380.34
2022-11-23T21:15:03.115Z,98385.84
2022-11-23T21:17:31.777Z,98382.53
2022-11-23T21:20:01.160Z,98383.97
2022-11-23T21:22:30.896Z,98388.16
2022-11-23T21:25:00.358Z,98380.91
2022-11-23T21:27:29.094Z,98383.38
2022-11-23T21:29:58.501Z,98388.69
2022-11-23T21:32:27.259Z,98386.78
2022-11-23T21:34:56.917Z,98393.66
2022-11-23T21:37:26.773Z,98392.88
2022-11-23T21:39:56.301Z,98384.81
2022-11-23T21:42:25.917Z,98388.41
2022-11-23T21:44:55.341Z,98391.28
2022-11-23T21:47:24.892Z,98399.16
2022-11-23T21:49:54.316Z,98399.16
2022-11-23T21:52:23.075Z,98401.81
2022-11-23T21:54:52.448Z,98397.44
2022-11-23T21:57:21.115Z,98401.25
2022-11-23T21:59:50.556Z,98408.66
2022-11-23T22:02:20.063Z,98406.75
2022-11-23T22:04:49.857Z,98407.91
2022-11-23T22:07:18.507Z,98413.81
2022-11-23T22:09:47.193Z,98411.69
2022-11-23T22:12:15.811Z,98412.06
2022-11-23T22:14:45.464Z,98417.31
2022-11-23T22:17:14.106Z,98415.44
2022-11-23T22:19:42.846Z,98420.84
2022-11-23T22:22:12.392Z,98419.78
2022-11-23T22:24:41.032Z,98413.97
2022-11-23T22:27:09.666Z,98420.63
2022-11-23T22:29:39.113Z,98420.19
2022-11-23T22:32:08.667Z,98412.28
2022-11-23T22:34:37.567Z,98408.09
2022-11-23T22:37:10.607Z,98414.84
2022-11-23T22:39:40.467Z,98414.34
2022-11-23T22:42:10.281Z,98417.28
2022-11-23T22:44:39.560Z,98423.66
2022-11-23T22:47:09.049Z,98420.25
2022-11-23T22:49:38.511Z,98415.13
2022-11-23T22:52:08.252Z,98417.41
2022-11-23T22:54:37.852Z,98424.16
2022-11-23T22:57:06.614Z,98431.88
2022-11-23T22:59:36.034Z,98425.50
2022-11-23T23:02:04.627Z,98425.97
2022-11-23T23:04:34.210Z,98428.59
2022-11-23T23:07:03.846Z,98429.28
2022-11-23T23:09:33.285Z,98428.81
2022-11-23T23:12:02.108Z,98440.25
2022-11-23T23:14:30.855Z,98435.47
2022-11-23T23:17:01.017Z,98435.84
2022-11-23T23:19:29.910Z,98441.75
2022-11-23T23:21:59.316Z,98446.47
2022-11-23T23:24:28.814Z,98443.16
2022-11-23T23:26:58.667Z,98445.63
2022-11-23T23:29:28.150Z,98442.00
2022-11-23T23:31:57.750Z,98441.81
2022-11-23T23:34:27.173Z,98444.09
2022-11-23T23:36:56.748Z,98446.56
2022-11-23T23:39:26.197Z,98452.38
2022-11-23T23:41:54.786Z,98445.72
2022-11-23T23:44:23.413Z,98444.94
2022-11-23T23:46:52.847Z,98449.06
2022-11-23T23:49:24.581Z,98450.09
2022-11-23T23:51:53.263Z,98445.81
2022-11-23T23:54:23.207Z,98450.75
2022-11-23T23:56:52.858Z,98455.59
2022-11-23T23:59:23.680Z,98456.06
